createdAt,value
2018-12-02T00:02:04.431Z,97778.64
2018-12-02T00:04:31.735Z,97777.86
2018-12-02T00:06:59.077Z,97777.45
2018-12-02T00:09:26.994Z,97772.30
2018-12-02T00:11:54.369Z,97779.77
2018-12-02T00:14:21.846Z,97771.70
2018-12-02T00:16:49.305Z,97774.72
2018-12-02T00:19:16.617Z,97764.50
2018-12-02T00:21:43.957Z,97757.98
2018-12-02T00:24:11.569Z,97753.12
2018-12-02T00:26:39.631Z,97748.34
2018-12-02T00:29:07.577Z,97748.14
2018-12-02T00:31:34.960Z,97740.27
2018-12-02T00:34:02.519Z,97735.44
2018-12-02T00:36:29.885Z,97738.42
2018-12-02T00:38:57.194Z,97727.75
2018-12-02T00:41:25.817Z,97725.88
2018-12-02T00:43:53.201Z,97729.63
2018-12-02T00:46:21.120Z,97722.64
2018-12-02T00:48:48.553Z,97722.23
2018-12-02T00:51:15.864Z,97718.67
2018-12-02T00:53:44.112Z,97717.86
2018-12-02T00:56:11.356Z,97716.78
2018-12-02T00:58:38.738Z,97714.13
2018-12-02T01:01:06.078Z,97711.91
2018-12-02T01:03:33.404Z,97713.77
2018-12-02T01:06:00.964Z,97715.42
2018-12-02T01:08:28.438Z,97701.95
2018-12-02T01:10:55.825Z,97710.52
2018-12-02T01:13:23.169Z,97714.93
2018-12-02T01:15:50.538Z,97703.58
2018-12-02T01:18:18.499Z,97706.05
2018-12-02T01:23:51.465Z,97692.80
2018-12-02T01:26:19.353Z,97693.25
2018-12-02T01:28:46.730Z,97681.48
2018-12-02T01:31:14.155Z,97678.52
2018-12-02T01:33:41.458Z,97675.18
2018-12-02T01:36:09.460Z,97674.50
2018-12-02T01:38:37.296Z,97674.95
2018-12-02T01:41:05.447Z,97676.08
2018-12-02T01:43:32.673Z,97672.70
2018-12-02T01:45:59.927Z,97684.55
2018-12-02T01:48:27.220Z,97677.25
2018-12-02T01:50:54.448Z,97679.99
2018-12-02T01:53:21.748Z,97675.70
2018-12-02T01:55:49.043Z,97685.17
2018-12-02T01:58:16.408Z,97695.30
2018-12-02T02:00:43.643Z,97690.08
2018-12-02T02:03:10.977Z,97691.11
2018-12-02T02:05:38.272Z,97693.23
2018-12-02T02:08:05.850Z,97693.68
2018-12-02T02:10:33.252Z,97684.58
2018-12-02T02:13:00.546Z,97684.58
2018-12-02T02:15:27.922Z,97677.96
2018-12-02T02:17:55.175Z,97676.11
2018-12-02T02:20:23.313Z,97673.95
2018-12-02T02:22:50.750Z,97676.66
2018-12-02T02:25:18.985Z,97680.12
2018-12-02T02:27:48.452Z,97664.08
2018-12-02T02:30:19.826Z,97672.41
2018-12-02T02:32:47.170Z,97659.89
2018-12-02T02:35:15.261Z,97651.23
2018-12-02T02:37:42.565Z,97640.38
2018-12-02T02:40:14.225Z,97640.38
2018-12-02T02:42:41.600Z,97641.81
2018-12-02T02:45:09.899Z,97637.13
2018-12-02T02:47:37.682Z,97643.79
2018-12-02T02:50:14.970Z,97635.95
2018-12-02T02:52:43.536Z,97632.44
2018-12-02T02:55:10.759Z,97619.19
2018-12-02T02:57:38.569Z,97620.62
2018-12-02T03:00:08.800Z,97617.48
2018-12-02T03:02:36.244Z,97608.34
2018-12-02T03:05:03.735Z,97597.67
2018-12-02T03:07:31.048Z,97593.89
2018-12-02T03:09:58.345Z,97589.52
2018-12-02T03:12:25.611Z,97578.94
2018-12-02T03:14:52.945Z,97576.25
2018-12-02T03:17:20.277Z,97570.13
2018-12-02T03:19:47.519Z,97553.59
2018-12-02T03:22:14.708Z,97542.20
2018-12-02T03:24:42.001Z,97535.27
2018-12-02T03:27:09.437Z,97546.58
2018-12-02T03:29:36.685Z,97537.83
2018-12-02T03:32:03.949Z,97549.05
2018-12-02T03:34:32.223Z,97532.52
2018-12-02T03:36:59.553Z,97523.78
2018-12-02T03:39:26.833Z,97530.27
2018-12-02T03:41:54.099Z,97520.22
2018-12-02T03:44:21.426Z,97509.81
2018-12-02T03:46:48.715Z,97496.72
2018-12-02T03:49:16.014Z,97500.19
2018-12-02T03:51:44.012Z,97503.69
2018-12-02T03:54:11.302Z,97495.13
2018-12-02T03:56:39.052Z,97496.95
2018-12-02T03:59:06.325Z,97492.58
2018-12-02T04:01:33.601Z,97486.64
2018-12-02T04:04:00.913Z,97493.22
2018-12-02T04:06:29.661Z,97493.27
2018-12-02T04:08:57.052Z,97489.70
2018-12-02T04:11:24.406Z,97497.80
2018-12-02T04:13:51.743Z,97495.69
2018-12-02T04:16:19.115Z,97492.17
2018-12-02T04:18:46.650Z,97490.95
2018-12-02T04:21:14.519Z,97489.06
2018-12-02T04:23:42.375Z,97482.62
2018-12-02T04:26:10.561Z,97465.61
2018-12-02T04:28:37.892Z,97458.67
2018-12-02T04:31:05.483Z,97447.37
2018-12-02T04:33:32.770Z,97456.62
2018-12-02T04:36:00.122Z,97454.91
2018-12-02T04:38:27.426Z,97455.41
2018-12-02T04:40:54.796Z,97464.06
2018-12-02T04:43:22.092Z,97450.98
2018-12-02T04:45:49.385Z,97450.55
2018-12-02T04:48:16.748Z,97435.72
2018-12-02T04:50:44.157Z,97430.11
2018-12-02T04:53:12.177Z,97420.41
2018-12-02T04:55:39.867Z,97415.58
2018-12-02T04:58:07.190Z,97402.16
2018-12-02T05:00:34.485Z,97411.36
2018-12-02T05:03:02.016Z,97413.06
2018-12-02T05:05:29.354Z,97414.48
2018-12-02T05:07:56.710Z,97419.19
2018-12-02T05:10:23.958Z,97425.73
2018-12-02T05:12:52.059Z,97410.16
2018-12-02T05:15:20.224Z,97408.75
2018-12-02T05:17:47.500Z,97396.53
2018-12-02T05:20:16.931Z,97390.52
2018-12-02T05:22:44.218Z,97385.69
2018-12-02T05:25:17.556Z,97392.82
2018-12-02T05:27:39.789Z,97393.33
2018-12-02T05:30:13.212Z,97392.53
2018-12-02T05:32:40.585Z,97392.13
2018-12-02T05:35:09.328Z,97371.79
2018-12-02T05:37:36.660Z,97388.36
2018-12-02T05:40:14.932Z,97386.89
2018-12-02T05:42:42.242Z,97383.02
2018-12-02T05:45:10.554Z,97373.28
2018-12-02T05:47:37.942Z,97374.16
2018-12-02T05:50:15.210Z,97375.45
2018-12-02T05:52:42.880Z,97383.34
2018-12-02T05:55:12.252Z,97381.31
2018-12-02T05:57:39.539Z,97383.88
2018-12-02T06:00:14.952Z,97376.11
2018-12-02T06:02:42.160Z,97383.72
2018-12-02T06:05:10.312Z,97376.44
2018-12-02T06:07:37.557Z,97372.27
2018-12-02T06:10:09.535Z,97375.13
2018-12-02T06:12:37.596Z,97373.33
2018-12-02T06:15:07.089Z,97374.23
2018-12-02T06:17:34.462Z,97376.84
2018-12-02T06:20:04.900Z,97365.65
2018-12-02T06:22:30.688Z,97366.55
2018-12-02T06:24:58.038Z,97373.88
2018-12-02T06:27:26.146Z,97365.50
2018-12-02T06:29:53.489Z,97358.61
2018-12-02T06:32:20.852Z,97349.18
2018-12-02T06:34:48.215Z,97346.98
2018-12-02T06:37:15.464Z,97340.80
2018-12-02T06:39:42.757Z,97327.80
2018-12-02T06:42:10.033Z,97328.70
2018-12-02T06:44:37.327Z,97327.41
2018-12-02T06:47:04.578Z,97325.28
2018-12-02T06:49:31.900Z,97323.02
2018-12-02T06:51:59.140Z,97314.24
2018-12-02T06:54:26.473Z,97305.96
2018-12-02T06:56:53.720Z,97307.36
2018-12-02T06:59:53.821Z,97303.45
2018-12-02T07:02:28.229Z,97292.46
2018-12-02T07:04:55.520Z,97296.33
2018-12-02T07:07:22.899Z,97287.64
2018-12-02T07:09:50.179Z,97285.48
2018-12-02T07:12:18.085Z,97286.74
2018-12-02T07:14:45.465Z,97277.55
2018-12-02T07:17:12.807Z,97263.84
2018-12-02T07:19:42.749Z,97274.67
2018-12-02T07:22:12.441Z,97266.84
2018-12-02T07:29:37.549Z,97262.33
2018-12-02T07:32:05.847Z,97263.19
2018-12-02T07:34:33.169Z,97248.87
2018-12-02T07:37:02.661Z,97250.98
2018-12-02T07:40:47.544Z,97244.95
2018-12-02T07:43:14.821Z,97236.63
2018-12-02T07:45:42.242Z,97235.47
2018-12-02T07:48:09.624Z,97218.59
2018-12-02T07:50:37.778Z,97224.28
2018-12-02T07:53:05.375Z,97225.59
2018-12-02T07:55:33.620Z,97230.41
2018-12-02T07:58:01.635Z,97219.61
2018-12-02T08:00:28.986Z,97220.97
2018-12-02T08:02:56.391Z,97216.60
2018-12-02T08:05:26.341Z,97209.92
2018-12-02T08:07:54.354Z,97214.70
2018-12-02T08:10:22.411Z,97206.80
2018-12-02T08:12:50.284Z,97200.79
2018-12-02T08:15:18.951Z,97193.86
2018-12-02T08:17:46.384Z,97194.90
2018-12-02T08:20:18.131Z,97197.44
2018-12-02T08:22:51.395Z,97195.13
2018-12-02T08:25:15.188Z,97196.83
2018-12-02T08:27:42.558Z,97192.11
2018-12-02T08:30:18.193Z,97182.88
2018-12-02T08:32:45.511Z,97187.69
2018-12-02T08:35:13.986Z,97182.07
2018-12-02T08:37:42.260Z,97183.88
2018-12-02T08:40:10.712Z,97183.08
2018-12-02T08:42:38.036Z,97179.16
2018-12-02T08:45:07.837Z,97188.25
2018-12-02T08:47:36.526Z,97173.33
2018-12-02T08:50:05.443Z,97183.93
2018-12-02T08:52:33.973Z,97177.86
2018-12-02T08:55:01.405Z,97172.63
2018-12-02T08:57:28.684Z,97175.25
2018-12-02T08:59:56.838Z,97180.47
2018-12-02T09:02:24.235Z,97177.75
2018-12-02T09:04:51.579Z,97171.13
2018-12-02T09:07:18.956Z,97169.52
2018-12-02T09:09:46.242Z,97170.72
2018-12-02T09:12:13.555Z,97161.98
2018-12-02T09:14:40.839Z,97166.75
2018-12-02T09:17:08.828Z,97159.13
2018-12-02T09:19:36.123Z,97158.29
2018-12-02T09:22:03.455Z,97156.98
2018-12-02T09:24:30.840Z,97153.79
2018-12-02T09:26:58.229Z,97156.22
2018-12-02T09:29:26.370Z,97140.95
2018-12-02T09:31:54.031Z,97136.41
2018-12-02T09:34:22.308Z,97142.25
2018-12-02T09:36:50.122Z,97138.20
2018-12-02T09:39:18.465Z,97144.63
2018-12-02T09:41:45.121Z,97140.57
2018-12-02T09:44:12.509Z,97138.76
2018-12-02T09:46:39.880Z,97133.23
2018-12-02T09:49:07.198Z,97137.52
2018-12-02T09:51:34.538Z,97127.69
2018-12-02T09:54:02.740Z,97126.30
2018-12-02T09:56:30.041Z,97128.20
2018-12-02T09:58:57.409Z,97116.64
2018-12-02T10:01:24.682Z,97116.92
2018-12-02T10:03:52.051Z,97112.80
2018-12-02T10:06:19.571Z,97107.45
2018-12-02T10:08:47.145Z,97109.40
2018-12-02T10:11:14.538Z,97109.08
2018-12-02T10:13:42.024Z,97098.45
2018-12-02T10:16:09.398Z,97093.02
2018-12-02T10:18:36.856Z,97085.95
2018-12-02T10:21:04.737Z,97075.48
2018-12-02T10:23:33.949Z,97066.27
2018-12-02T10:26:01.602Z,97063.38
2018-12-02T10:28:28.918Z,97051.98
2018-12-02T10:30:56.182Z,97061.55
2018-12-02T10:33:23.537Z,97042.31
2018-12-02T10:35:51.562Z,97041.92
2018-12-02T10:38:18.867Z,97041.86
2018-12-02T10:40:46.164Z,97054.03
2018-12-02T10:43:13.505Z,97046.93
2018-12-02T10:45:40.816Z,97060.80
2018-12-02T10:48:09.655Z,97056.42
2018-12-02T10:50:37.030Z,97057.27
2018-12-02T10:53:10.980Z,97056.27
2018-12-02T10:55:48.454Z,97058.81
2018-12-02T10:58:19.125Z,97063.72
2018-12-02T11:00:52.046Z,97050.47
2018-12-02T11:03:19.536Z,97050.77
2018-12-02T11:05:47.331Z,97049.40
2018-12-02T11:08:14.801Z,97044.95
2018-12-02T11:10:42.182Z,97048.32
2018-12-02T11:13:09.484Z,97049.56
2018-12-02T11:15:38.594Z,97048.19
2018-12-02T11:18:07.953Z,97049.05
2018-12-02T11:20:35.109Z,97033.33
2018-12-02T11:23:03.323Z,97032.55
2018-12-02T11:25:30.700Z,97037.72
2018-12-02T11:27:58.049Z,97029.02
2018-12-02T11:30:25.403Z,97015.14
2018-12-02T11:32:53.401Z,97020.77
2018-12-02T11:35:20.701Z,97008.45
2018-12-02T11:37:48.015Z,97007.44
2018-12-02T11:40:22.143Z,96998.14
2018-12-02T11:42:50.865Z,97007.31
2018-12-02T11:45:18.715Z,97007.83
2018-12-02T11:47:48.106Z,97002.77
2018-12-02T11:50:17.185Z,97005.31
2018-12-02T11:52:44.506Z,96996.16
2018-12-02T11:55:14.609Z,97004.66
2018-12-02T11:57:43.749Z,97014.28
2018-12-02T12:00:24.417Z,97011.31
2018-12-02T12:02:52.166Z,97017.36
2018-12-02T12:05:19.434Z,97015.92
2018-12-02T12:07:48.248Z,97011.77
2018-12-02T12:10:17.528Z,97004.30
2018-12-02T12:12:45.691Z,97003.77
2018-12-02T12:15:14.846Z,97001.32
2018-12-02T12:17:42.200Z,97007.31
2018-12-02T12:20:16.213Z,97011.63
2018-12-02T12:22:43.490Z,97000.26
2018-12-02T12:25:10.827Z,96999.30
2018-12-02T12:27:38.276Z,96997.33
2018-12-02T12:30:15.613Z,96999.91
2018-12-02T12:32:42.896Z,97001.17
2018-12-02T12:35:12.385Z,96995.69
2018-12-02T12:37:39.660Z,96997.06
2018-12-02T12:40:11.844Z,96994.38
2018-12-02T12:42:39.411Z,96984.29
2018-12-02T12:45:09.176Z,96990.84
2018-12-02T12:47:37.166Z,96979.90
2018-12-02T12:50:07.050Z,96984.89
2018-12-02T12:52:34.422Z,96971.89
2018-12-02T12:55:02.976Z,96967.50
2018-12-02T12:57:31.072Z,96967.97
2018-12-02T12:59:58.882Z,96958.66
2018-12-02T13:02:26.235Z,96970.05
2018-12-02T13:04:53.899Z,96951.47
2018-12-02T13:07:21.400Z,96951.64
2018-12-02T13:09:48.808Z,96951.03
2018-12-02T13:12:16.199Z,96938.92
2018-12-02T13:14:43.696Z,96943.45
2018-12-02T13:17:11.075Z,96949.61
2018-12-02T13:19:38.424Z,96953.80
2018-12-02T13:22:05.846Z,96953.12
2018-12-02T13:24:33.226Z,96955.73
2018-12-02T13:27:00.567Z,96944.37
2018-12-02T13:29:29.067Z,96944.37
2018-12-02T13:31:56.445Z,96956.41
2018-12-02T13:34:23.796Z,96959.81
2018-12-02T13:36:51.660Z,96953.66
2018-12-02T13:39:19.031Z,96956.56
2018-12-02T13:41:46.433Z,96959.11
2018-12-02T13:44:13.854Z,96959.70
2018-12-02T13:46:41.156Z,96956.73
2018-12-02T13:49:08.480Z,96965.97
2018-12-02T13:51:35.790Z,96956.55
2018-12-02T13:54:08.914Z,96977.37
2018-12-02T13:56:36.181Z,96964.41
2018-12-02T13:59:03.599Z,96967.81
2018-12-02T14:01:30.993Z,96976.19
2018-12-02T14:03:58.344Z,96980.52
2018-12-02T14:06:25.659Z,96981.04
2018-12-02T14:08:53.285Z,96988.94
2018-12-02T14:11:21.003Z,96984.75
2018-12-02T14:13:48.341Z,96974.59
2018-12-02T14:16:55.679Z,96974.20
2018-12-02T14:19:23.030Z,96973.97
2018-12-02T14:21:50.402Z,96972.84
2018-12-02T14:24:19.858Z,96968.73
2018-12-02T14:26:48.004Z,96971.50
2018-12-02T14:29:23.323Z,96969.55
2018-12-02T14:31:55.423Z,96970.09
2018-12-02T14:34:22.725Z,96967.72
2018-12-02T14:36:50.033Z,96970.20
2018-12-02T14:39:17.561Z,96966.02
2018-12-02T14:41:44.880Z,96975.39
2018-12-02T14:44:12.209Z,96980.95
2018-12-02T14:46:39.609Z,96986.73
2018-12-02T14:49:06.891Z,96998.20
2018-12-02T14:51:34.349Z,96995.44
2018-12-02T14:54:02.184Z,96998.59
2018-12-02T14:56:30.298Z,96997.61
2018-12-02T14:58:57.610Z,96992.89
2018-12-02T15:01:25.025Z,97000.36
2018-12-02T15:03:52.722Z,97005.48
2018-12-02T15:06:20.240Z,97003.50
2018-12-02T15:08:47.687Z,97006.64
2018-12-02T15:11:14.948Z,97007.31
2018-12-02T15:13:42.721Z,97002.91
2018-12-02T15:16:09.996Z,97010.85
2018-12-02T15:18:37.403Z,97013.13
2018-12-02T15:21:05.014Z,97014.13
2018-12-02T15:23:32.616Z,97025.53
2018-12-02T15:25:59.950Z,97014.78
2018-12-02T15:28:27.220Z,97029.79
2018-12-02T15:30:54.621Z,97029.25
2018-12-02T15:33:21.957Z,97031.30
2018-12-02T15:35:49.229Z,97028.68
2018-12-02T15:38:16.794Z,97014.11
2018-12-02T15:40:45.190Z,97024.67
2018-12-02T15:43:12.547Z,97029.67
2018-12-02T15:45:39.948Z,97025.28
2018-12-02T15:48:07.272Z,97020.16
2018-12-02T15:50:34.610Z,97024.03
2018-12-02T15:53:02.047Z,97029.73
2018-12-02T15:55:30.808Z,97030.97
2018-12-02T15:57:59.094Z,97040.75
2018-12-02T16:00:30.683Z,97038.23
2018-12-02T16:02:58.022Z,97049.66
2018-12-02T16:05:25.488Z,97058.63
2018-12-02T16:07:55.433Z,97052.44
2018-12-02T16:10:24.340Z,97049.81
2018-12-02T16:12:53.045Z,97068.67
2018-12-02T16:15:22.236Z,97064.23
2018-12-02T16:17:57.021Z,97072.60
2018-12-02T16:20:27.568Z,97074.73
2018-12-02T16:22:59.345Z,97077.98
2018-12-02T16:25:27.161Z,97072.81
2018-12-02T16:27:54.501Z,97082.84
2018-12-02T16:30:21.924Z,97080.61
2018-12-02T16:32:52.244Z,97083.16
2018-12-02T16:35:19.711Z,97078.97
2018-12-02T16:37:48.349Z,97069.41
2018-12-02T16:40:19.791Z,97076.55
2018-12-02T16:42:47.681Z,97068.69
2018-12-02T16:45:15.984Z,97066.77
2018-12-02T16:47:44.447Z,97067.89
2018-12-02T16:50:23.301Z,97075.05
2018-12-02T16:52:51.849Z,97065.39
2018-12-02T16:55:20.999Z,97078.76
2018-12-02T16:57:59.865Z,97074.28
2018-12-02T17:00:35.279Z,97083.14
2018-12-02T17:03:03.705Z,97086.38
2018-12-02T17:05:31.284Z,97101.12
2018-12-02T17:07:58.772Z,97093.13
2018-12-02T17:10:26.348Z,97093.45
2018-12-02T17:12:53.643Z,97084.41
2018-12-02T17:15:20.937Z,97089.52
2018-12-02T17:17:48.379Z,97087.73
2018-12-02T17:20:16.656Z,97089.63
2018-12-02T17:22:44.707Z,97095.27
2018-12-02T17:25:12.816Z,97093.57
2018-12-02T17:27:41.733Z,97103.16
2018-12-02T17:30:18.076Z,97100.67
2018-12-02T17:32:48.200Z,97103.42
2018-12-02T17:35:18.910Z,97109.33
2018-12-02T17:37:46.182Z,97107.51
2018-12-02T17:40:16.296Z,97109.88
2018-12-02T17:42:43.808Z,97104.35
2018-12-02T17:45:13.019Z,97102.28
2018-12-02T17:47:40.355Z,97104.17
2018-12-02T17:50:12.129Z,97102.66
2018-12-02T17:52:39.776Z,97107.69
2018-12-02T17:55:07.819Z,97101.50
2018-12-02T17:57:35.085Z,97106.25
2018-12-02T18:00:03.225Z,97112.02
2018-12-02T18:02:30.530Z,97101.46
2018-12-02T18:04:58.098Z,97117.53
2018-12-02T18:07:27.037Z,97108.61
2018-12-02T18:09:54.332Z,97113.63
2018-12-02T18:12:22.818Z,97112.90
2018-12-02T18:14:50.272Z,97122.02
2018-12-02T18:17:18.099Z,97125.49
2018-12-02T18:19:46.609Z,97118.08
2018-12-02T18:22:14.009Z,97127.12
2018-12-02T18:24:41.473Z,97123.09
2018-12-02T18:27:16.606Z,97123.83
2018-12-02T18:29:45.256Z,97123.52
2018-12-02T18:32:14.389Z,97119.42
2018-12-02T18:34:42.680Z,97121.20
2018-12-02T18:37:10.752Z,97126.50
2018-12-02T18:39:38.103Z,97128.82
2018-12-02T18:42:06.761Z,97126.58
2018-12-02T18:44:40.932Z,97126.92
2018-12-02T18:47:08.266Z,97125.14
2018-12-02T18:49:38.868Z,97123.83
2018-12-02T18:52:08.473Z,97116.18
2018-12-02T18:54:38.211Z,97124.45
2018-12-02T18:57:05.982Z,97125.48
2018-12-02T18:59:35.811Z,97125.34
2018-12-02T19:02:03.492Z,97124.17
2018-12-02T19:04:32.237Z,97126.11
2018-12-02T19:06:59.576Z,97124.06
2018-12-02T19:09:29.500Z,97129.59
2018-12-02T19:11:58.784Z,97127.19
2018-12-02T19:14:33.037Z,97126.69
2018-12-02T19:17:06.405Z,97135.77
2018-12-02T19:19:36.431Z,97133.38
2018-12-02T19:22:12.387Z,97138.02
2018-12-02T19:24:44.184Z,97136.31
2018-12-02T19:27:22.740Z,97125.88
2018-12-02T19:29:57.196Z,97135.62
2018-12-02T19:32:24.564Z,97136.81
2018-12-02T19:34:53.036Z,97133.95
2018-12-02T19:37:20.537Z,97135.92
2018-12-02T19:39:49.727Z,97142.37
2018-12-02T19:42:17.115Z,97148.02
2018-12-02T19:44:44.958Z,97143.54
2018-12-02T19:47:12.374Z,97138.41
2018-12-02T19:49:40.221Z,97134.38
2018-12-02T19:52:07.978Z,97143.46
2018-12-02T19:54:36.835Z,97135.97
2018-12-02T19:57:05.568Z,97135.34
2018-12-02T19:59:33.067Z,97146.05
2018-12-02T20:02:01.473Z,97149.53
2018-12-02T20:04:29.369Z,97138.78
2018-12-02T20:06:56.852Z,97133.67
2018-12-02T20:09:25.088Z,97143.56
2018-12-02T20:11:53.177Z,97150.45
2018-12-02T20:14:20.552Z,97148.25
2018-12-02T20:16:47.913Z,97154.70
2018-12-02T20:19:21.264Z,97155.28
2018-12-02T20:21:49.615Z,97163.17
2018-12-02T20:24:25.300Z,97155.94
2018-12-02T20:26:53.392Z,97159.45
2018-12-02T20:29:20.970Z,97157.47
2018-12-02T20:31:49.100Z,97159.27
2018-12-02T20:34:16.520Z,97152.23
2018-12-02T20:36:44.465Z,97149.14
2018-12-02T20:39:11.836Z,97145.09
2018-12-02T20:41:41.444Z,97146.61
2018-12-02T20:44:08.844Z,97147.23
2018-12-02T20:46:37.510Z,97149.50
2018-12-02T20:49:05.032Z,97151.76
2018-12-02T20:51:34.233Z,97151.72
2018-12-02T20:54:02.442Z,97146.69
2018-12-02T20:56:47.226Z,97150.81
2018-12-02T20:59:15.488Z,97144.70
2018-12-02T21:01:44.241Z,97153.11
2018-12-02T21:04:15.293Z,97152.20
2018-12-02T21:06:43.474Z,97145.68
2018-12-02T21:09:10.827Z,97145.68
2018-12-02T21:11:40.578Z,97145.32
2018-12-02T21:14:08.307Z,97144.01
2018-12-02T21:16:35.747Z,97143.72
2018-12-02T21:19:06.222Z,97143.66
2018-12-02T21:21:37.227Z,97140.83
2018-12-02T21:24:01.899Z,97146.78
2018-12-02T21:26:29.632Z,97137.91
2018-12-02T21:28:57.607Z,97140.68
2018-12-02T21:31:25.351Z,97149.89
2018-12-02T21:33:52.620Z,97151.84
2018-12-02T21:36:20.016Z,97147.73
2018-12-02T21:38:47.313Z,97147.61
2018-12-02T21:41:15.258Z,97147.66
2018-12-02T21:43:42.637Z,97153.16
2018-12-02T21:46:09.893Z,97156.72
2018-12-02T21:48:37.667Z,97161.98
2018-12-02T21:51:04.928Z,97149.05
2018-12-02T21:53:32.272Z,97154.79
2018-12-02T21:55:59.636Z,97157.50
2018-12-02T21:58:26.974Z,97149.99
2018-12-02T22:01:00.654Z,97155.64
2018-12-02T22:03:27.906Z,97137.30
2018-12-02T22:05:56.787Z,97145.74
2018-12-02T22:08:24.194Z,97148.20
2018-12-02T22:10:52.712Z,97150.28
2018-12-02T22:13:20.481Z,97158.73
2018-12-02T22:15:47.752Z,97161.69
2018-12-02T22:18:15.992Z,97162.58
2018-12-02T22:20:43.283Z,97159.16
2018-12-02T22:23:10.585Z,97166.95
2018-12-02T22:25:37.916Z,97168.32
2018-12-02T22:28:06.975Z,97165.51
2018-12-02T22:30:34.302Z,97160.61
2018-12-02T22:33:01.614Z,97153.64
2018-12-02T22:35:28.964Z,97149.86
2018-12-02T22:37:56.975Z,97151.37
2018-12-02T22:40:24.833Z,97160.34
2018-12-02T22:42:53.089Z,97151.61
2018-12-02T22:45:22.307Z,97156.21
2018-12-02T22:47:49.725Z,97152.04
2018-12-02T22:50:18.019Z,97153.47
2018-12-02T22:52:46.395Z,97150.07
2018-12-02T22:55:13.710Z,97154.24
2018-12-02T22:57:40.965Z,97148.80
2018-12-02T23:00:18.705Z,97139.39
2018-12-02T23:02:53.185Z,97147.66
2018-12-02T23:05:20.483Z,97149.09
2018-12-02T23:07:47.776Z,97139.05
2018-12-02T23:10:15.176Z,97137.19
2018-12-02T23:12:42.401Z,97129.73
2018-12-02T23:15:09.882Z,97127.69
2018-12-02T23:17:37.733Z,97125.59
2018-12-02T23:20:07.692Z,97127.07
2018-12-02T23:22:34.914Z,97130.20
2018-12-02T23:25:02.471Z,97129.28
2018-12-02T23:27:29.780Z,97129.82
2018-12-02T23:29:57.000Z,97122.59
2018-12-02T23:32:24.279Z,97123.82
2018-12-02T23:34:51.518Z,97123.52
2018-12-02T23:37:20.695Z,97118.77
2018-12-02T23:39:46.162Z,97116.78
2018-12-02T23:42:14.733Z,97109.47
2018-12-02T23:44:41.940Z,97113.05
2018-12-02T23:47:09.275Z,97117.92
2018-12-02T23:49:36.551Z,97124.42
2018-12-02T23:52:04.497Z,97117.66
2018-12-02T23:54:31.806Z,97121.58
2018-12-02T23:56:59.165Z,97127.84
2018-12-02T23:59:26.466Z,97128.95
